createdAt,value
2022-11-24T00:00:33.836Z,99369.72
2022-11-24T00:03:36.856Z,99379.88
2022-11-24T00:06:39.404Z,99380.47
2022-11-24T00:09:41.835Z,99379.94
2022-11-24T00:12:44.262Z,99379.88
2022-11-24T00:15:46.668Z,99383.13
2022-11-24T00:18:50.599Z,99383.47
2022-11-24T00:21:53.061Z,99381.75
2022-11-24T00:24:55.466Z,99379.63
2022-11-24T00:27:57.782Z,99385.63
2022-11-24T00:31:00.906Z,99392.66
2022-11-24T00:34:06.279Z,99390.28
2022-11-24T00:37:08.701Z,99399.78
2022-11-24T00:40:11.655Z,99398.34
2022-11-24T00:43:14.088Z,99403.53
2022-11-24T00:46:17.087Z,99407.19
2022-11-24T00:49:19.736Z,99407.31
2022-11-24T00:52:22.127Z,99410.75
2022-11-24T00:55:24.615Z,99399.41
2022-11-24T00:58:27.366Z,99408.00
2022-11-24T01:01:33.885Z,99405.53
2022-11-24T01:04:36.640Z,99408.81
2022-11-24T01:07:39.189Z,99406.91
2022-11-24T01:10:41.804Z,99416.72
2022-11-24T01:13:47.026Z,99413.31
2022-11-24T01:16:49.488Z,99418.25
2022-11-24T01:19:51.950Z,99418.25
2022-11-24T01:22:54.636Z,99419.63
2022-11-24T01:25:57.055Z,99425.78
2022-11-24T01:28:59.485Z,99421.69
2022-11-24T01:32:01.987Z,99424.81
2022-11-24T01:35:05.995Z,99423.28
2022-11-24T01:38:08.435Z,99418.16
2022-11-24T01:41:15.189Z,99418.41
2022-11-24T01:44:27.011Z,99421.16
2022-11-24T01:47:40.734Z,99422.47
2022-11-24T01:50:44.084Z,99419.38
2022-11-24T01:53:54.275Z,99423.56
2022-11-24T01:57:03.121Z,99422.22
2022-11-24T02:00:09.782Z,99433.22
2022-11-24T02:03:24.007Z,99431.50
2022-11-24T02:06:31.585Z,99427.41
2022-11-24T02:09:36.612Z,99434.22
2022-11-24T02:12:42.335Z,99430.81
2022-11-24T02:15:44.778Z,99436.69
2022-11-24T02:18:47.468Z,99433.00
2022-11-24T02:21:49.926Z,99434.41
2022-11-24T02:25:01.522Z,99438.09
2022-11-24T02:28:08.566Z,99447.44
2022-11-24T02:31:11.801Z,99442.09
2022-11-24T02:34:14.273Z,99439.53
2022-11-24T02:37:16.683Z,99440.47
2022-11-24T02:40:25.122Z,99440.94
2022-11-24T02:43:32.583Z,99441.78
2022-11-24T02:46:35.062Z,99440.56
2022-11-24T02:49:38.080Z,99441.91
2022-11-24T02:52:40.528Z,99446.81
2022-11-24T02:55:42.897Z,99438.56
2022-11-24T02:58:45.275Z,99450.44
2022-11-24T03:01:48.018Z,99450.69
2022-11-24T03:04:50.574Z,99452.22
2022-11-24T03:07:53.134Z,99455.66
2022-11-24T03:10:55.700Z,99464.63
2022-11-24T03:13:58.835Z,99463.44
2022-11-24T03:17:01.365Z,99460.03
2022-11-24T03:20:05.388Z,99463.53
2022-11-24T03:23:08.011Z,99468.00
2022-11-24T03:26:13.142Z,99475.56
2022-11-24T03:29:15.588Z,99469.28
2022-11-24T03:32:18.151Z,99465.81
2022-11-24T03:35:21.355Z,99472.44
2022-11-24T03:38:23.903Z,99465.13
2022-11-24T03:41:26.454Z,99473.41
2022-11-24T03:44:28.953Z,99479.56
2022-11-24T03:47:31.376Z,99486.84
2022-11-24T03:50:33.770Z,99484.00
2022-11-24T03:53:36.300Z,99484.78
2022-11-24T03:56:44.298Z,99482.28
2022-11-24T03:59:49.971Z,99495.94
2022-11-24T04:02:56.934Z,99492.66
2022-11-24T04:05:59.358Z,99502.03
2022-11-24T04:09:01.687Z,99502.09
2022-11-24T04:12:22.821Z,99503.97
2022-11-24T04:15:25.162Z,99506.63
2022-11-24T04:18:27.595Z,99512.03
2022-11-24T04:21:29.979Z,99519.84
2022-11-24T04:24:32.689Z,99519.66
2022-11-24T04:27:36.956Z,99523.53
2022-11-24T04:30:44.476Z,99534.16
2022-11-24T04:33:46.983Z,99529.63
2022-11-24T04:36:49.445Z,99540.63
2022-11-24T04:39:51.889Z,99539.91
2022-11-24T04:42:57.661Z,99544.22
2022-11-24T04:46:01.623Z,99547.41
2022-11-24T04:49:04.237Z,99545.88
2022-11-24T04:52:06.666Z,99555.22
2022-11-24T04:55:09.623Z,99555.16
2022-11-24T04:58:12.364Z,99562.84
2022-11-24T05:01:15.127Z,99567.28
2022-11-24T05:04:20.445Z,99570.19
2022-11-24T05:07:22.951Z,99575.16
2022-11-24T05:10:38.106Z,99567.41
2022-11-24T05:13:40.643Z,99575.31
2022-11-24T05:16:43.312Z,99580.97
2022-11-24T05:19:45.705Z,99576.47
2022-11-24T05:22:48.107Z,99578.28
2022-11-24T05:25:50.944Z,99584.25
2022-11-24T05:28:53.725Z,99586.94
2022-11-24T05:31:56.142Z,99586.16
2022-11-24T05:35:00.588Z,99592.91
2022-11-24T05:38:04.444Z,99593.66
2022-11-24T05:41:06.829Z,99599.88
2022-11-24T05:44:09.381Z,99607.69
2022-11-24T05:47:11.728Z,99611.84
2022-11-24T05:50:16.073Z,99620.97
2022-11-24T05:53:18.531Z,99621.72
2022-11-24T05:56:20.993Z,99624.88
2022-11-24T05:59:23.448Z,99626.66
2022-11-24T06:02:28.957Z,99621.84
2022-11-24T06:05:32.033Z,99637.97
2022-11-24T06:08:34.616Z,99639.81
2022-11-24T06:11:38.179Z,99644.94
2022-11-24T06:14:41.645Z,99645.78
2022-11-24T06:17:44.665Z,99653.56
2022-11-24T06:21:09.291Z,99653.31
2022-11-24T06:24:48.235Z,99656.63
2022-11-24T06:27:50.987Z,99665.56
2022-11-24T06:30:53.630Z,99656.28
2022-11-24T06:33:56.719Z,99660.44
2022-11-24T06:36:59.325Z,99665.91
2022-11-24T06:40:01.883Z,99669.94
2022-11-24T06:43:04.604Z,99672.88
2022-11-24T06:46:07.796Z,99683.03
2022-11-24T06:49:10.653Z,99688.22
2022-11-24T06:52:13.288Z,99686.97
2022-11-24T06:55:16.134Z,99691.88
2022-11-24T06:58:18.855Z,99688.75
2022-11-24T07:01:23.995Z,99703.53
2022-11-24T07:04:26.609Z,99708.59
2022-11-24T07:07:29.007Z,99713.84
2022-11-24T07:10:33.868Z,99711.03
2022-11-24T07:13:36.718Z,99719.81
2022-11-24T07:16:40.255Z,99718.78
2022-11-24T07:19:42.819Z,99730.78
2022-11-24T07:22:45.330Z,99723.31
2022-11-24T07:25:47.781Z,99726.69
2022-11-24T07:28:50.999Z,99732.91
2022-11-24T07:31:53.519Z,99727.28
2022-11-24T07:34:56.260Z,99735.47
2022-11-24T07:37:59.356Z,99738.97
2022-11-24T07:41:22.156Z,99750.53
2022-11-24T07:44:26.957Z,99744.88
2022-11-24T07:47:29.438Z,99756.16
2022-11-24T07:50:34.549Z,99755.31
2022-11-24T07:53:38.459Z,99760.22
2022-11-24T07:56:41.335Z,99757.31
2022-11-24T07:59:44.228Z,99765.31
2022-11-24T08:02:46.738Z,99765.47
2022-11-24T08:09:22.081Z,99763.16
2022-11-24T08:12:24.601Z,99767.53
2022-11-24T08:15:27.399Z,99774.97
2022-11-24T08:18:30.252Z,99774.50
2022-11-24T08:21:32.810Z,99774.00
2022-11-24T08:24:35.582Z,99780.34
2022-11-24T08:27:40.158Z,99790.84
2022-11-24T08:30:46.581Z,99793.72
2022-11-24T08:33:49.102Z,99804.38
2022-11-24T08:36:52.324Z,99805.94
2022-11-24T08:39:54.855Z,99799.72
2022-11-24T08:42:58.642Z,99798.38
2022-11-24T08:46:07.138Z,99801.53
2022-11-24T08:49:10.710Z,99801.34
2022-11-24T08:52:16.021Z,99790.94
2022-11-24T08:55:18.958Z,99789.94
2022-11-24T08:58:21.496Z,99798.44
2022-11-24T09:01:25.573Z,99796.59
2022-11-24T09:04:28.388Z,99791.94
2022-11-24T09:07:30.953Z,99796.34
2022-11-24T09:10:33.639Z,99789.16
2022-11-24T09:13:37.054Z,99791.09
2022-11-24T09:16:39.697Z,99784.09
2022-11-24T09:19:42.209Z,99791.88
2022-11-24T09:22:44.967Z,99793.31
2022-11-24T09:25:47.682Z,99793.72
2022-11-24T09:28:54.467Z,99797.94
2022-11-24T09:32:00.736Z,99792.53
2022-11-24T09:35:06.454Z,99797.94
2022-11-24T09:38:09.980Z,99800.81
2022-11-24T09:41:19.050Z,99803.25
2022-11-24T09:44:50.080Z,99808.97
2022-11-24T09:48:08.555Z,99810.09
2022-11-24T09:51:13.865Z,99808.91
2022-11-24T09:54:21.775Z,99810.22
2022-11-24T09:57:34.124Z,99811.34
2022-11-24T10:00:54.808Z,99815.00
2022-11-24T10:04:02.585Z,99818.06
2022-11-24T10:07:20.131Z,99814.56
2022-11-24T10:10:33.080Z,99815.25
2022-11-24T10:14:04.935Z,99819.56
2022-11-24T10:17:18.928Z,99810.97
2022-11-24T10:20:45.321Z,99814.38
2022-11-24T10:24:20.907Z,99816.03
2022-11-24T10:27:33.805Z,99819.81
2022-11-24T10:30:37.531Z,99820.19
2022-11-24T10:33:41.356Z,99820.06
2022-11-24T10:37:13.959Z,99815.34
2022-11-24T10:40:55.827Z,99811.28
2022-11-24T10:43:58.023Z,99820.47
2022-11-24T10:47:00.501Z,99816.59
2022-11-24T10:50:20.122Z,99819.13
2022-11-24T10:53:26.921Z,99823.25
2022-11-24T10:56:41.453Z,99823.97
2022-11-24T10:59:44.209Z,99820.34
2022-11-24T11:02:48.755Z,99826.31
2022-11-24T11:06:11.565Z,99822.00
2022-11-24T11:09:23.485Z,99819.94
2022-11-24T11:12:47.634Z,99822.47
2022-11-24T11:15:50.380Z,99818.63
2022-11-24T11:18:53.655Z,99817.13
2022-11-24T11:22:24.009Z,99820.59
2022-11-24T11:25:33.383Z,99822.00
2022-11-24T11:28:35.923Z,99821.34
2022-11-24T11:31:39.612Z,99824.13
2022-11-24T11:34:42.379Z,99817.69
2022-11-24T11:37:46.876Z,99810.88
2022-11-24T11:40:51.384Z,99807.38
2022-11-24T11:44:24.336Z,99814.56
2022-11-24T11:47:29.356Z,99817.50
2022-11-24T11:50:47.383Z,99828.38
2022-11-24T11:54:27.350Z,99829.13
2022-11-24T11:57:41.947Z,99831.53
2022-11-24T12:01:05.472Z,99835.94
2022-11-24T12:04:14.582Z,99827.25
2022-11-24T12:07:35.563Z,99836.38
2022-11-24T12:10:59.630Z,99833.31
2022-11-24T12:14:17.392Z,99846.78
2022-11-24T12:17:40.442Z,99846.63
2022-11-24T12:20:55.911Z,99852.25
2022-11-24T12:24:37.720Z,99852.47
2022-11-24T12:28:08.527Z,99857.13
2022-11-24T12:31:37.522Z,99860.25
2022-11-24T12:35:05.987Z,99868.91
2022-11-24T12:38:26.569Z,99870.91
2022-11-24T12:41:47.579Z,99867.75
2022-11-24T12:44:59.116Z,99868.50
2022-11-24T12:48:07.671Z,99881.53
2022-11-24T12:51:19.060Z,99878.78
2022-11-24T12:54:22.596Z,99880.34
2022-11-24T12:57:43.870Z,99872.84
2022-11-24T13:01:11.575Z,99869.47
2022-11-24T13:04:59.092Z,99872.88
2022-11-24T13:08:03.943Z,99881.94
2022-11-24T13:11:21.667Z,99876.75
2022-11-24T13:14:38.342Z,99878.47
2022-11-24T13:17:59.467Z,99892.84
2022-11-24T13:21:03.595Z,99899.09
2022-11-24T13:24:19.702Z,99898.81
2022-11-24T13:27:28.519Z,99898.22
2022-11-24T13:30:34.049Z,99901.81
2022-11-24T13:33:37.729Z,99906.88
2022-11-24T13:36:53.165Z,99915.09
2022-11-24T13:40:01.026Z,99910.28
2022-11-24T13:43:04.812Z,99917.44
2022-11-24T13:46:09.877Z,99913.72
2022-11-24T13:49:20.577Z,99919.59
2022-11-24T13:52:43.955Z,99919.22
2022-11-24T13:56:17.811Z,99915.66
2022-11-24T13:59:33.057Z,99915.38
2022-11-24T14:02:35.847Z,99919.72
2022-11-24T14:05:40.126Z,99921.63
2022-11-24T14:08:46.498Z,99930.09
2022-11-24T14:12:08.313Z,99932.88
2022-11-24T14:15:27.111Z,99945.63
2022-11-24T14:18:30.058Z,99949.22
2022-11-24T14:21:42.259Z,99957.13
2022-11-24T14:24:47.235Z,99953.56
2022-11-24T14:27:50.235Z,99959.94
2022-11-24T14:31:18.017Z,99963.03
2022-11-24T14:34:23.166Z,99971.25
2022-11-24T14:37:25.757Z,99977.28
2022-11-24T14:40:52.038Z,99970.06
2022-11-24T14:44:28.922Z,99972.78
2022-11-24T14:47:37.163Z,99975.28
2022-11-24T14:50:39.780Z,99978.00
2022-11-24T14:53:49.160Z,99982.66
2022-11-24T14:57:05.943Z,99978.00
2022-11-24T15:00:17.148Z,99973.09
2022-11-24T15:03:19.897Z,99978.38
2022-11-24T15:06:22.342Z,99980.75
2022-11-24T15:09:34.627Z,99989.25
2022-11-24T15:12:42.506Z,99989.97
2022-11-24T15:15:57.597Z,99990.31
2022-11-24T15:19:03.997Z,99994.75
2022-11-24T15:22:39.282Z,100004.22
2022-11-24T15:25:52.002Z,100009.59
2022-11-24T15:28:54.379Z,100014.31
2022-11-24T15:31:58.695Z,100015.28
2022-11-24T15:35:01.274Z,100034.81
2022-11-24T15:38:03.708Z,100035.06
2022-11-24T15:41:18.174Z,100035.88
2022-11-24T15:44:20.627Z,100044.13
2022-11-24T15:47:23.014Z,100042.69
2022-11-24T15:50:27.936Z,100036.34
2022-11-24T15:53:40.454Z,100048.03
2022-11-24T15:56:44.548Z,100049.50
2022-11-24T15:59:53.792Z,100051.78
2022-11-24T16:02:56.970Z,100054.69
2022-11-24T16:05:59.481Z,100056.22
2022-11-24T16:09:02.003Z,100058.34
2022-11-24T16:12:04.761Z,100066.91
2022-11-24T16:15:07.605Z,100066.66
2022-11-24T16:18:10.473Z,100066.66
2022-11-24T16:21:12.993Z,100065.44
2022-11-24T16:24:15.497Z,100070.84
2022-11-24T16:27:18.066Z,100080.31
2022-11-24T16:30:20.937Z,100084.59
2022-11-24T16:33:23.980Z,100078.63
2022-11-24T16:36:26.783Z,100085.44
2022-11-24T16:39:29.435Z,100078.53
2022-11-24T16:42:31.888Z,100087.16
2022-11-24T16:45:34.327Z,100080.22
2022-11-24T16:48:37.846Z,100091.38
2022-11-24T16:51:42.520Z,100093.13
2022-11-24T16:54:48.241Z,100090.81
2022-11-24T16:57:51.035Z,100098.63
2022-11-24T17:00:53.969Z,100101.03
2022-11-24T17:03:56.436Z,100104.41
2022-11-24T17:06:59.130Z,100103.59
2022-11-24T17:10:01.622Z,100108.50
2022-11-24T17:13:04.503Z,100105.94
2022-11-24T17:16:09.132Z,100105.47
2022-11-24T17:19:12.886Z,100106.94
2022-11-24T17:22:15.277Z,100108.84
2022-11-24T17:25:17.972Z,100119.13
2022-11-24T17:28:21.131Z,100116.66
2022-11-24T17:31:26.342Z,100116.91
2022-11-24T17:34:29.679Z,100113.69
2022-11-24T17:37:32.749Z,100115.91
2022-11-24T17:40:35.735Z,100117.75
2022-11-24T17:43:38.580Z,100119.44
2022-11-24T17:46:41.557Z,100121.16
2022-11-24T17:49:44.569Z,100127.44
2022-11-24T17:52:47.318Z,100117.19
2022-11-24T17:55:49.970Z,100113.03
2022-11-24T17:58:57.940Z,100123.09
2022-11-24T18:02:02.843Z,100115.03
2022-11-24T18:05:06.104Z,100124.34
2022-11-24T18:08:09.565Z,100134.19
2022-11-24T18:11:25.930Z,100138.34
2022-11-24T18:14:33.490Z,100144.31
2022-11-24T18:17:36.754Z,100143.31
2022-11-24T18:20:39.686Z,100145.03
2022-11-24T18:23:43.787Z,100141.81
2022-11-24T18:26:46.866Z,100143.53
2022-11-24T18:29:54.852Z,100145.53
2022-11-24T18:32:58.951Z,100150.03
2022-11-24T18:36:03.513Z,100152.28
2022-11-24T18:39:08.105Z,100157.44
2022-11-24T18:42:10.868Z,100153.66
2022-11-24T18:45:13.535Z,100159.50
2022-11-24T18:48:17.070Z,100163.06
2022-11-24T18:51:20.161Z,100164.63
2022-11-24T18:54:22.916Z,100173.47
2022-11-24T18:57:25.529Z,100171.19
2022-11-24T19:00:28.537Z,100173.88
2022-11-24T19:03:30.975Z,100177.78
2022-11-24T19:06:36.003Z,100178.91
2022-11-24T19:09:38.836Z,100183.75
2022-11-24T19:12:44.915Z,100176.25
2022-11-24T19:15:49.627Z,100183.47
2022-11-24T19:18:56.691Z,100185.75
2022-11-24T19:22:03.277Z,100192.97
2022-11-24T19:25:06.799Z,100195.22
2022-11-24T19:28:12.937Z,100194.84
2022-11-24T19:31:18.173Z,100202.06
2022-11-24T19:34:20.868Z,100204.44
2022-11-24T19:37:23.739Z,100211.00
2022-11-24T19:40:28.075Z,100213.38
2022-11-24T19:43:31.410Z,100216.59
2022-11-24T19:46:34.128Z,100227.53
2022-11-24T19:49:36.687Z,100225.06
2022-11-24T19:52:39.475Z,100226.66
2022-11-24T19:55:42.238Z,100228.44
2022-11-24T19:58:46.110Z,100227.44
2022-11-24T20:01:49.128Z,100236.81
2022-11-24T20:04:51.959Z,100238.44
2022-11-24T20:07:54.937Z,100239.97
2022-11-24T20:11:05.870Z,100246.00
2022-11-24T20:14:12.495Z,100246.69
2022-11-24T20:17:15.132Z,100252.91
2022-11-24T20:20:17.972Z,100250.72
2022-11-24T20:23:20.847Z,100263.16
2022-11-24T20:26:25.513Z,100264.00
2022-11-24T20:29:29.486Z,100262.38
2022-11-24T20:32:32.184Z,100267.34
2022-11-24T20:35:34.812Z,100274.16
2022-11-24T20:38:38.556Z,100270.94
2022-11-24T20:41:41.444Z,100272.56
2022-11-24T20:44:44.124Z,100282.63
2022-11-24T20:47:46.625Z,100277.78
2022-11-24T20:50:51.474Z,100282.91
2022-11-24T20:53:57.937Z,100286.38
2022-11-24T20:57:00.604Z,100292.00
2022-11-24T21:00:04.519Z,100295.41
2022-11-24T21:03:08.554Z,100298.72
2022-11-24T21:06:14.801Z,100305.06
2022-11-24T21:09:18.500Z,100293.28
2022-11-24T21:12:21.135Z,100305.06
2022-11-24T21:15:24.047Z,100308.97
2022-11-24T21:18:26.996Z,100315.03
2022-11-24T21:21:34.155Z,100317.97
2022-11-24T21:24:37.140Z,100318.69
2022-11-24T21:27:40.275Z,100325.69
2022-11-24T21:30:42.765Z,100328.09
2022-11-24T21:33:50.850Z,100323.47
2022-11-24T21:36:53.483Z,100327.91
2022-11-24T21:39:55.868Z,100328.25
2022-11-24T21:42:59.682Z,100337.31
2022-11-24T21:46:07.108Z,100335.63
2022-11-24T21:49:09.721Z,100337.22
2022-11-24T21:52:12.381Z,100339.91
2022-11-24T21:55:15.187Z,100346.69
2022-11-24T21:58:17.576Z,100356.16
2022-11-24T22:01:21.851Z,100356.59
2022-11-24T22:04:24.644Z,100364.28
2022-11-24T22:07:31.539Z,100358.16
2022-11-24T22:10:34.970Z,100365.00
2022-11-24T22:13:37.424Z,100368.41
2022-11-24T22:16:40.132Z,100377.72
2022-11-24T22:19:42.616Z,100376.69
2022-11-24T22:22:45.216Z,100387.75
2022-11-24T22:25:47.684Z,100390.41
2022-11-24T22:28:51.025Z,100395.59
2022-11-24T22:31:54.274Z,100398.13
2022-11-24T22:34:56.838Z,100401.06
2022-11-24T22:37:59.280Z,100400.22
2022-11-24T22:41:07.116Z,100407.34
2022-11-24T22:44:09.575Z,100411.47
2022-11-24T22:47:12.013Z,100409.19
2022-11-24T22:50:14.852Z,100415.13
2022-11-24T22:53:17.308Z,100415.72
2022-11-24T22:56:20.715Z,100421.47
2022-11-24T22:59:23.446Z,100432.56
2022-11-24T23:02:25.907Z,100437.66
2022-11-24T23:05:29.226Z,100437.63
2022-11-24T23:08:36.103Z,100438.13
2022-11-24T23:11:40.781Z,100437.84
2022-11-24T23:14:43.225Z,100440.22
2022-11-24T23:17:45.604Z,100434.03
2022-11-24T23:20:47.991Z,100448.44
2022-11-24T23:23:51.339Z,100444.16
2022-11-24T23:26:54.107Z,100443.22
2022-11-24T23:29:56.495Z,100446.03
2022-11-24T23:32:59.433Z,100450.06
2022-11-24T23:36:05.087Z,100455.25
2022-11-24T23:39:14.428Z,100460.53
2022-11-24T23:42:16.871Z,100458.59
2022-11-24T23:45:19.305Z,100466.31
2022-11-24T23:48:21.872Z,100468.75
2022-11-24T23:51:27.973Z,100470.78
2022-11-24T23:54:30.647Z,100470.88
2022-11-24T23:57:33.060Z,100473.00
